KPGD

Punta Gorda Airport

Punta Gorda, Florida, USA
METAR KPGD 202353Z 00000KT 10SM CLR 25/22 A3009 RMK AO2 RAE11 SLP188 P0000 60070 T02500217 10328 20244 58006
Observed Flight Rules
Aug-20 @ 23:53 UTC (14 minutes ago) Visual Flight Rules
Visibility Clouds
10 miles
  • Clear skies
Temperatures Readings Precipitation
Current 25°C / 77°F
Dewpoint 22°C / 72°F
Humidity 83%
Altimeter 30.09" Hg
Pressure 1018.8 hPa
Elevation 7
Current Rain 0.005
METAR KPGD 202353Z 00000KT 10SM CLR 25/22 A3009 RMK AO2 RAE11 SLP188 P0000 60070 T02500217 10328 20244 58006
Observed Flight Rules
Aug-20 @ 23:53 UTC
(14 minutes ago)
VFR
Clouds
  • Clear skies
Temperature Dewpoint
25°C / 77°F 22°C / 72°F
Humidity Altimeter Pressure
83% 30.09" Hg 1018.8 hPa
Current Rain
0.005